sensor_id;sensor_type;location;lat;lon;timestamp;temperature;humidity
9668;DHT22;4872;48.316;10.650;2024-01-27T05:05:42;0.50;99.90
9668;DHT22;4872;48.316;10.650;2024-01-27T05:08:09;0.40;99.90
9668;DHT22;4872;48.316;10.650;2024-01-27T05:10:36;0.50;99.90
9668;DHT22;4872;48.316;10.650;2024-01-27T05:13:03;0.60;99.90
9668;DHT22;4872;48.316;10.650;2024-01-27T05:15:30;0.60;99.90
9668;DHT22;4872;48.316;10.650;2024-01-27T05:17:59;0.60;99.90
9668;DHT22;4872;48.316;10.650;2024-01-27T05:20:26;0.60;99.90
9668;DHT22;4872;48.316;10.650;2024-01-27T05:22:54;0.70;99.90
9668;DHT22;4872;48.316;10.650;2024-01-27T05:25:21;0.70;99.90
9668;DHT22;4872;48.316;10.650;2024-01-27T05:27:48;0.80;99.90
9668;DHT22;4872;48.316;10.650;2024-01-27T05:30:15;0.90;99.90
9668;DHT22;4872;48.316;10.650;2024-01-27T05:32:42;0.90;99.90
9668;DHT22;4872;48.316;10.650;2024-01-27T05:35:09;0.90;99.90
9668;DHT22;4872;48.316;10.650;2024-01-27T05:37:36;0.90;99.90
9668;DHT22;4872;48.316;10.650;2024-01-27T05:40:07;0.90;99.90
9668;DHT22;4872;48.316;10.650;2024-01-27T05:42:34;0.90;99.90
9668;DHT22;4872;48.316;10.650;2024-01-27T05:45:01;0.90;99.90
9668;DHT22;4872;48.316;10.650;2024-01-27T05:47:28;0.90;99.90
9668;DHT22;4872;48.316;10.650;2024-01-27T05:49:54;0.90;99.90
9668;DHT22;4872;48.316;10.650;2024-01-27T05:52:21;0.80;99.90
9668;DHT22;4872;48.316;10.650;2024-01-27T05:54:48;0.70;99.90
9668;DHT22;4872;48.316;10.650;2024-01-27T05:57:16;0.70;99.90
9668;DHT22;4872;48.316;10.650;2024-01-27T05:59:42;0.70;99.90
9668;DHT22;4872;48.316;10.650;2024-01-27T06:02:10;0.80;99.90
9668;DHT22;4872;48.316;10.650;2024-01-27T06:04:36;0.80;99.90
9668;DHT22;4872;48.316;10.650;2024-01-27T06:07:03;0.80;99.90
9668;DHT22;4872;48.316;10.650;2024-01-27T06:09:30;0.70;99.90
9668;DHT22;4872;48.316;10.650;2024-01-27T06:11:59;0.70;99.90
9668;DHT22;4872;48.316;10.650;2024-01-27T06:14:27;0.70;99.90
9668;DHT22;4872;48.316;10.650;2024-01-27T06:16:54;0.60;99.90
9668;DHT22;4872;48.316;10.650;2024-01-27T06:19:20;0.60;99.90
9668;DHT22;4872;48.316;10.650;2024-01-27T06:21:47;0.60;99.90
9668;DHT22;4872;48.316;10.650;2024-01-27T06:24:14;0.70;99.90
9668;DHT22;4872;48.316;10.650;2024-01-27T06:26:41;0.70;99.90
9668;DHT22;4872;48.316;10.650;2024-01-27T06:29:07;0.70;99.90
9668;DHT22;4872;48.316;10.650;2024-01-27T06:31:35;0.60;99.90
9668;DHT22;4872;48.316;10.650;2024-01-27T06:34:02;0.60;99.90
9668;DHT22;4872;48.316;10.650;2024-01-27T06:36:29;0.50;99.90
9668;DHT22;4872;48.316;10.650;2024-01-27T06:38:56;0.50;99.90
9668;DHT22;4872;48.316;10.650;2024-01-27T06:41:23;0.50;99.90
9668;DHT22;4872;48.316;10.650;2024-01-27T06:43:49;0.50;99.90
9668;DHT22;4872;48.316;10.650;2024-01-27T06:46:16;0.60;99.90
9668;DHT22;4872;48.316;10.650;2024-01-27T06:48:44;0.60;99.90
9668;DHT22;4872;48.316;10.650;2024-01-27T06:51:11;0.60;99.90
9668;DHT22;4872;48.316;10.650;2024-01-27T06:53:38;0.60;99.90
9668;DHT22;4872;48.316;10.650;2024-01-27T06:56:05;0.60;99.90
9668;DHT22;4872;48.316;10.650;2024-01-27T06:58:32;0.60;99.90
9668;DHT22;4872;48.316;10.650;2024-01-27T07:00:59;0.50;99.90
9668;DHT22;4872;48.316;10.650;2024-01-27T07:03:26;0.50;99.90
9668;DHT22;4872;48.316;10.650;2024-01-27T07:05:54;0.40;99.90
9668;DHT22;4872;48.316;10.650;2024-01-27T07:08:21;0.50;99.90
9668;DHT22;4872;48.316;10.650;2024-01-27T07:10:47;0.40;99.90
9668;DHT22;4872;48.316;10.650;2024-01-27T07:13:14;0.40;99.90
9668;DHT22;4872;48.316;10.650;2024-01-27T07:15:41;0.50;99.90
9668;DHT22;4872;48.316;10.650;2024-01-27T07:18:08;0.50;99.90
9668;DHT22;4872;48.316;10.650;2024-01-27T07:20:35;0.50;99.90
9668;DHT22;4872;48.316;10.650;2024-01-27T07:23:04;0.60;99.90
9668;DHT22;4872;48.316;10.650;2024-01-27T07:25:31;0.50;99.90
9668;DHT22;4872;48.316;10.650;2024-01-27T07:27:57;0.60;99.90
9668;DHT22;4872;48.316;10.650;2024-01-27T07:30:24;0.60;99.90
9668;DHT22;4872;48.316;10.650;2024-01-27T07:32:51;0.60;99.90
9668;DHT22;4872;48.316;10.650;2024-01-27T07:35:18;0.50;99.90
9668;DHT22;4872;48.316;10.650;2024-01-27T07:37:44;0.30;99.90
9668;DHT22;4872;48.316;10.650;2024-01-27T07:40:13;0.40;99.90
9668;DHT22;4872;48.316;10.650;2024-01-27T07:42:40;0.40;99.90
9668;DHT22;4872;48.316;10.650;2024-01-27T07:45:07;0.50;99.90
9668;DHT22;4872;48.316;10.650;2024-01-27T07:47:34;0.50;99.90
9668;DHT22;4872;48.316;10.650;2024-01-27T07:50:01;0.60;99.90
9668;DHT22;4872;48.316;10.650;2024-01-27T07:52:28;0.60;99.90
9668;DHT22;4872;48.316;10.650;2024-01-27T07:54:54;0.80;99.90
9668;DHT22;4872;48.316;10.650;2024-01-27T07:57:23;1.00;99.90
9668;DHT22;4872;48.316;10.650;2024-01-27T07:59:50;1.40;99.90
9668;DHT22;4872;48.316;10.650;2024-01-27T08:02:17;1.70;99.90
9668;DHT22;4872;48.316;10.650;2024-01-27T08:04:43;1.70;99.90
9668;DHT22;4872;48.316;10.650;2024-01-27T08:07:10;1.70;99.90
9668;DHT22;4872;48.316;10.650;2024-01-27T08:09:40;1.60;99.90
9668;DHT22;4872;48.316;10.650;2024-01-27T08:12:07;1.50;99.90
9668;DHT22;4872;48.316;10.650;2024-01-27T08:14:35;1.70;99.90
9668;DHT22;4872;48.316;10.650;2024-01-27T08:17:02;2.00;99.90
9668;DHT22;4872;48.316;10.650;2024-01-27T08:19:29;2.30;99.90
9668;DHT22;4872;48.316;10.650;2024-01-27T08:21:56;2.90;99.90
9668;DHT22;4872;48.316;10.650;2024-01-27T08:24:23;3.50;99.90
9668;DHT22;4872;48.316;10.650;2024-01-27T08:26:50;4.30;99.00
9668;DHT22;4872;48.316;10.650;2024-01-27T08:29:17;4.50;97.40
9668;DHT22;4872;48.316;10.650;2024-01-27T08:31:45;4.70;97.30
9668;DHT22;4872;48.316;10.650;2024-01-27T08:34:12;4.50;97.10
9668;DHT22;4872;48.316;10.650;2024-01-27T08:36:39;4.30;97.50
9668;DHT22;4872;48.316;10.650;2024-01-27T08:39:06;4.70;97.50
9668;DHT22;4872;48.316;10.650;2024-01-27T08:41:34;5.30;96.70
9668;DHT22;4872;48.316;10.650;2024-01-27T08:44:01;5.60;96.40
9668;DHT22;4872;48.316;10.650;2024-01-27T08:46:27;5.80;96.10
9668;DHT22;4872;48.316;10.650;2024-01-27T08:48:55;6.20;95.90
9668;DHT22;4872;48.316;10.650;2024-01-27T08:51:22;7.00;95.50
9668;DHT22;4872;48.316;10.650;2024-01-27T08:53:49;7.50;94.80
9668;DHT22;4872;48.316;10.650;2024-01-27T08:56:16;7.90;93.00
9668;DHT22;4872;48.316;10.650;2024-01-27T08:58:43;8.10;93.10
9668;DHT22;4872;48.316;10.650;2024-01-27T09:01:10;8.30;92.30
9668;DHT22;4872;48.316;10.650;2024-01-27T09:03:38;8.70;92.00
9668;DHT22;4872;48.316;10.650;2024-01-27T09:06:07;8.80;91.60
9668;DHT22;4872;48.316;10.650;2024-01-27T09:08:34;9.10;91.00
9668;DHT22;4872;48.316;10.650;2024-01-27T09:11:01;9.50;90.70
9668;DHT22;4872;48.316;10.650;2024-01-27T09:13:28;9.60;89.00
9668;DHT22;4872;48.316;10.650;2024-01-27T09:15:56;9.90;89.00
9668;DHT22;4872;48.316;10.650;2024-01-27T09:18:23;9.90;88.60
9668;DHT22;4872;48.316;10.650;2024-01-27T09:20:50;10.20;86.70
9668;DHT22;4872;48.316;10.650;2024-01-27T09:23:19;10.40;86.50
9668;DHT22;4872;48.316;10.650;2024-01-27T09:25:46;10.80;86.30
9668;DHT22;4872;48.316;10.650;2024-01-27T09:28:12;11.10;83.90
9668;DHT22;4872;48.316;10.650;2024-01-27T09:30:41;11.30;83.50
9668;DHT22;4872;48.316;10.650;2024-01-27T09:33:08;11.50;82.90
9668;DHT22;4872;48.316;10.650;2024-01-27T09:35:34;11.80;81.90
9668;DHT22;4872;48.316;10.650;2024-01-27T09:38:01;11.40;80.30
9668;DHT22;4872;48.316;10.650;2024-01-27T09:40:30;11.10;81.90
9668;DHT22;4872;48.316;10.650;2024-01-27T09:42:59;11.30;81.40
9668;DHT22;4872;48.316;10.650;2024-01-27T09:45:26;11.50;81.80
9668;DHT22;4872;48.316;10.650;2024-01-27T09:47:54;11.60;80.90
9668;DHT22;4872;48.316;10.650;2024-01-27T09:50:22;11.80;81.60
9668;DHT22;4872;48.316;10.650;2024-01-27T09:52:49;12.00;80.70
9668;DHT22;4872;48.316;10.650;2024-01-27T09:55:16;12.10;80.50
9668;DHT22;4872;48.316;10.650;2024-01-27T09:57:44;12.20;79.50
9668;DHT22;4872;48.316;10.650;2024-01-27T10:00:12;12.40;80.30
9668;DHT22;4872;48.316;10.650;2024-01-27T10:02:40;12.80;79.10
9668;DHT22;4872;48.316;10.650;2024-01-27T10:05:08;13.10;76.40
9668;DHT22;4872;48.316;10.650;2024-01-27T10:07:35;13.30;76.30
9668;DHT22;4872;48.316;10.650;2024-01-27T10:10:02;13.60;73.40
9668;DHT22;4872;48.316;10.650;2024-01-27T10:12:29;14.00;72.70
9668;DHT22;4872;48.316;10.650;2024-01-27T10:14:59;14.30;69.60
9668;DHT22;4872;48.316;10.650;2024-01-27T10:17:25;14.50;68.80
9668;DHT22;4872;48.316;10.650;2024-01-27T10:20:01;14.80;67.50
9668;DHT22;4872;48.316;10.650;2024-01-27T10:22:37;15.20;66.40
9668;DHT22;4872;48.316;10.650;2024-01-27T10:25:04;15.30;65.40
9668;DHT22;4872;48.316;10.650;2024-01-27T10:27:31;15.30;64.80
9668;DHT22;4872;48.316;10.650;2024-01-27T10:29:59;15.60;63.80
9668;DHT22;4872;48.316;10.650;2024-01-27T10:32:26;15.10;63.30
9668;DHT22;4872;48.316;10.650;2024-01-27T10:35:01;15.10;63.20
9668;DHT22;4872;48.316;10.650;2024-01-27T10:37:28;15.30;63.80
9668;DHT22;4872;48.316;10.650;2024-01-27T10:40:00;15.60;62.30
9668;DHT22;4872;48.316;10.650;2024-01-27T10:42:28;15.50;63.20
9668;DHT22;4872;48.316;10.650;2024-01-27T10:44:59;15.60;63.70
9668;DHT22;4872;48.316;10.650;2024-01-27T10:47:27;15.50;60.40
9668;DHT22;4872;48.316;10.650;2024-01-27T10:49:55;15.50;60.40
9668;DHT22;4872;48.316;10.650;2024-01-27T10:52:24;15.70;61.10
9668;DHT22;4872;48.316;10.650;2024-01-27T10:54:55;15.60;60.30
9668;DHT22;4872;48.316;10.650;2024-01-27T10:57:25;16.10;60.40
9668;DHT22;4872;48.316;10.650;2024-01-27T10:59:53;16.70;59.60
9668;DHT22;4872;48.316;10.650;2024-01-27T11:02:21;16.70;59.00
9668;DHT22;4872;48.316;10.650;2024-01-27T11:04:49;17.50;59.60
9668;DHT22;4872;48.316;10.650;2024-01-27T11:07:18;18.00;59.00
9668;DHT22;4872;48.316;10.650;2024-01-27T11:09:46;18.50;57.60
9668;DHT22;4872;48.316;10.650;2024-01-27T11:12:16;18.70;57.50
9668;DHT22;4872;48.316;10.650;2024-01-27T11:14:43;18.70;57.10
9668;DHT22;4872;48.316;10.650;2024-01-27T11:17:11;18.70;55.60
9668;DHT22;4872;48.316;10.650;2024-01-27T11:19:39;18.50;54.50
9668;DHT22;4872;48.316;10.650;2024-01-27T11:22:06;18.50;54.60
9668;DHT22;4872;48.316;10.650;2024-01-27T11:24:33;18.60;55.60
9668;DHT22;4872;48.316;10.650;2024-01-27T11:27:01;18.80;54.80
9668;DHT22;4872;48.316;10.650;2024-01-27T11:29:28;18.70;55.00
9668;DHT22;4872;48.316;10.650;2024-01-27T11:31:55;19.30;55.00
9668;DHT22;4872;48.316;10.650;2024-01-27T11:34:22;19.70;53.40
9668;DHT22;4872;48.316;10.650;2024-01-27T11:36:50;19.90;53.40
9668;DHT22;4872;48.316;10.650;2024-01-27T11:39:24;19.80;53.10
9668;DHT22;4872;48.316;10.650;2024-01-27T11:41:52;19.70;53.10
9668;DHT22;4872;48.316;10.650;2024-01-27T11:44:19;19.60;53.70
9668;DHT22;4872;48.316;10.650;2024-01-27T11:46:47;20.30;53.40
9668;DHT22;4872;48.316;10.650;2024-01-27T11:49:15;20.30;53.30
9668;DHT22;4872;48.316;10.650;2024-01-27T11:51:42;20.80;53.10
9668;DHT22;4872;48.316;10.650;2024-01-27T11:54:10;21.20;52.40
9668;DHT22;4872;48.316;10.650;2024-01-27T11:56:38;21.70;52.00
9668;DHT22;4872;48.316;10.650;2024-01-27T11:59:05;22.10;49.80
9668;DHT22;4872;48.316;10.650;2024-01-27T12:01:32;22.60;49.40
9668;DHT22;4872;48.316;10.650;2024-01-27T12:03:58;23.20;48.70
9668;DHT22;4872;48.316;10.650;2024-01-27T12:06:25;22.50;48.60
9668;DHT22;4872;48.316;10.650;2024-01-27T12:08:56;23.30;48.90
9668;DHT22;4872;48.316;10.650;2024-01-27T12:11:24;23.80;46.70
9668;DHT22;4872;48.316;10.650;2024-01-27T12:13:51;24.10;45.50
9668;DHT22;4872;48.316;10.650;2024-01-27T12:16:18;24.60;45.30
9668;DHT22;4872;48.316;10.650;2024-01-27T12:18:45;25.30;44.50
9668;DHT22;4872;48.316;10.650;2024-01-27T12:21:11;25.30;43.60
9668;DHT22;4872;48.316;10.650;2024-01-27T12:23:51;25.10;42.90
9668;DHT22;4872;48.316;10.650;2024-01-27T12:26:20;25.20;42.40
9668;DHT22;4872;48.316;10.650;2024-01-27T12:28:48;25.20;42.70
9668;DHT22;4872;48.316;10.650;2024-01-27T12:31:15;23.60;42.20
9668;DHT22;4872;48.316;10.650;2024-01-27T12:33:49;23.70;42.90
9668;DHT22;4872;48.316;10.650;2024-01-27T12:36:17;24.40;41.80
9668;DHT22;4872;48.316;10.650;2024-01-27T12:38:47;24.80;41.20
9668;DHT22;4872;48.316;10.650;2024-01-27T12:41:14;24.60;42.10
9668;DHT22;4872;48.316;10.650;2024-01-27T12:43:40;24.70;41.20
9668;DHT22;4872;48.316;10.650;2024-01-27T12:46:08;24.40;40.60
9668;DHT22;4872;48.316;10.650;2024-01-27T12:48:36;24.40;40.90
9668;DHT22;4872;48.316;10.650;2024-01-27T12:51:04;24.40;41.00
9668;DHT22;4872;48.316;10.650;2024-01-27T12:53:31;24.00;41.90
9668;DHT22;4872;48.316;10.650;2024-01-27T12:55:58;23.10;42.30
9668;DHT22;4872;48.316;10.650;2024-01-27T12:58:24;22.10;42.70
9668;DHT22;4872;48.316;10.650;2024-01-27T13:00:51;21.10;42.90
9668;DHT22;4872;48.316;10.650;2024-01-27T13:03:19;19.70;43.30
9668;DHT22;4872;48.316;10.650;2024-01-27T13:05:46;19.10;45.10
9668;DHT22;4872;48.316;10.650;2024-01-27T13:08:13;18.00;44.70
9668;DHT22;4872;48.316;10.650;2024-01-27T13:10:40;17.10;45.40
9668;DHT22;4872;48.316;10.650;2024-01-27T13:13:07;16.40;45.30
9668;DHT22;4872;48.316;10.650;2024-01-27T13:15:34;15.50;46.70
9668;DHT22;4872;48.316;10.650;2024-01-27T13:18:00;14.70;47.20
9668;DHT22;4872;48.316;10.650;2024-01-27T13:20:28;14.30;47.30
9668;DHT22;4872;48.316;10.650;2024-01-27T13:22:55;14.20;48.00
9668;DHT22;4872;48.316;10.650;2024-01-27T13:25:22;13.50;48.40
9668;DHT22;4872;48.316;10.650;2024-01-27T13:27:49;13.00;49.40
9668;DHT22;4872;48.316;10.650;2024-01-27T13:30:16;13.00;50.00
9668;DHT22;4872;48.316;10.650;2024-01-27T13:32:43;13.10;49.90
9668;DHT22;4872;48.316;10.650;2024-01-27T13:35:10;13.00;50.30
9668;DHT22;4872;48.316;10.650;2024-01-27T13:37:38;13.10;49.80
9668;DHT22;4872;48.316;10.650;2024-01-27T13:40:06;13.00;50.00
9668;DHT22;4872;48.316;10.650;2024-01-27T13:42:35;13.00;50.10
9668;DHT22;4872;48.316;10.650;2024-01-27T13:45:02;12.90;50.60
9668;DHT22;4872;48.316;10.650;2024-01-27T13:47:30;12.70;50.50
9668;DHT22;4872;48.316;10.650;2024-01-27T13:49:57;12.40;50.10
9668;DHT22;4872;48.316;10.650;2024-01-27T13:52:24;12.30;49.70
9668;DHT22;4872;48.316;10.650;2024-01-27T13:54:52;11.70;49.50
9668;DHT22;4872;48.316;10.650;2024-01-27T13:57:19;11.80;50.10
9668;DHT22;4872;48.316;10.650;2024-01-27T13:59:46;11.80;50.00
9668;DHT22;4872;48.316;10.650;2024-01-27T14:02:13;11.60;50.40
9668;DHT22;4872;48.316;10.650;2024-01-27T14:04:39;11.70;50.80
9668;DHT22;4872;48.316;10.650;2024-01-27T14:07:06;11.60;51.50
9668;DHT22;4872;48.316;10.650;2024-01-27T14:09:35;11.60;51.60
9668;DHT22;4872;48.316;10.650;2024-01-27T14:12:03;11.30;51.40
9668;DHT22;4872;48.316;10.650;2024-01-27T14:14:30;11.40;51.50
9668;DHT22;4872;48.316;10.650;2024-01-27T14:16:57;11.60;52.10
9668;DHT22;4872;48.316;10.650;2024-01-27T14:19:24;11.60;51.30
9668;DHT22;4872;48.316;10.650;2024-01-27T14:21:50;11.80;51.50
9668;DHT22;4872;48.316;10.650;2024-01-27T14:24:17;11.60;51.30
9668;DHT22;4872;48.316;10.650;2024-01-27T14:26:44;11.80;51.30
9668;DHT22;4872;48.316;10.650;2024-01-27T14:29:12;11.60;50.70
9668;DHT22;4872;48.316;10.650;2024-01-27T14:31:39;11.50;50.00
9668;DHT22;4872;48.316;10.650;2024-01-27T14:34:05;11.50;50.50
9668;DHT22;4872;48.316;10.650;2024-01-27T14:36:32;11.50;50.80
9668;DHT22;4872;48.316;10.650;2024-01-27T14:38:59;11.50;50.90
9668;DHT22;4872;48.316;10.650;2024-01-27T14:41:26;11.20;50.60
9668;DHT22;4872;48.316;10.650;2024-01-27T14:43:53;11.30;50.90
9668;DHT22;4872;48.316;10.650;2024-01-27T14:46:22;11.30;51.00
9668;DHT22;4872;48.316;10.650;2024-01-27T14:48:49;11.40;50.90
9668;DHT22;4872;48.316;10.650;2024-01-27T14:51:16;11.50;50.90
9668;DHT22;4872;48.316;10.650;2024-01-27T14:53:42;11.60;50.40
9668;DHT22;4872;48.316;10.650;2024-01-27T14:56:09;11.60;50.40
9668;DHT22;4872;48.316;10.650;2024-01-27T14:58:36;11.50;49.60
9668;DHT22;4872;48.316;10.650;2024-01-27T15:01:03;11.70;50.00
9668;DHT22;4872;48.316;10.650;2024-01-27T15:03:31;11.40;49.10
9668;DHT22;4872;48.316;10.650;2024-01-27T15:05:58;11.40;49.70
9668;DHT22;4872;48.316;10.650;2024-01-27T15:08:26;11.40;49.90
9668;DHT22;4872;48.316;10.650;2024-01-27T15:10:53;11.50;49.60
9668;DHT22;4872;48.316;10.650;2024-01-27T15:13:20;11.60;49.60
9668;DHT22;4872;48.316;10.650;2024-01-27T15:15:49;11.70;50.00
9668;DHT22;4872;48.316;10.650;2024-01-27T15:18:15;11.70;50.90
9668;DHT22;4872;48.316;10.650;2024-01-27T15:20:44;11.70;51.50
9668;DHT22;4872;48.316;10.650;2024-01-27T15:23:10;11.70;51.80
9668;DHT22;4872;48.316;10.650;2024-01-27T15:25:38;11.70;52.00
9668;DHT22;4872;48.316;10.650;2024-01-27T15:28:05;11.70;52.40
9668;DHT22;4872;48.316;10.650;2024-01-27T15:30:33;11.70;52.70
9668;DHT22;4872;48.316;10.650;2024-01-27T15:33:00;11.70;52.90
9668;DHT22;4872;48.316;10.650;2024-01-27T15:35:27;11.60;53.10
9668;DHT22;4872;48.316;10.650;2024-01-27T15:37:59;11.50;53.30
9668;DHT22;4872;48.316;10.650;2024-01-27T15:40:26;11.40;53.30
9668;DHT22;4872;48.316;10.650;2024-01-27T15:42:53;11.00;53.50
9668;DHT22;4872;48.316;10.650;2024-01-27T15:45:21;10.70;54.10
9668;DHT22;4872;48.316;10.650;2024-01-27T15:47:47;10.30;54.40
9668;DHT22;4872;48.316;10.650;2024-01-27T15:50:14;9.90;55.70
9668;DHT22;4872;48.316;10.650;2024-01-27T15:52:42;9.70;56.30
9668;DHT22;4872;48.316;10.650;2024-01-27T15:55:10;9.40;56.50
9668;DHT22;4872;48.316;10.650;2024-01-27T15:57:37;9.10;56.80
9668;DHT22;4872;48.316;10.650;2024-01-27T16:00:05;8.70;57.10
9668;DHT22;4872;48.316;10.650;2024-01-27T16:02:35;8.40;57.50
9668;DHT22;4872;48.316;10.650;2024-01-27T16:05:02;8.10;58.10
9668;DHT22;4872;48.316;10.650;2024-01-27T16:07:29;7.90;58.70
9668;DHT22;4872;48.316;10.650;2024-01-27T16:09:56;7.60;59.20
9668;DHT22;4872;48.316;10.650;2024-01-27T16:12:29;7.40;59.90
9668;DHT22;4872;48.316;10.650;2024-01-27T16:14:56;7.20;60.80
9668;DHT22;4872;48.316;10.650;2024-01-27T16:17:23;7.00;61.40
9668;DHT22;4872;48.316;10.650;2024-01-27T16:19:49;6.90;62.00
9668;DHT22;4872;48.316;10.650;2024-01-27T16:22:16;6.80;62.70
9668;DHT22;4872;48.316;10.650;2024-01-27T16:24:43;6.80;63.10
9668;DHT22;4872;48.316;10.650;2024-01-27T16:27:10;6.60;63.20
9668;DHT22;4872;48.316;10.650;2024-01-27T16:29:38;6.50;64.00
9668;DHT22;4872;48.316;10.650;2024-01-27T16:32:05;6.50;63.90
9668;DHT22;4872;48.316;10.650;2024-01-27T16:34:32;6.30;64.00
9668;DHT22;4872;48.316;10.650;2024-01-27T16:36:59;6.20;64.30
9668;DHT22;4872;48.316;10.650;2024-01-27T16:39:26;6.20;64.90
9668;DHT22;4872;48.316;10.650;2024-01-27T16:41:52;6.10;65.00
9668;DHT22;4872;48.316;10.650;2024-01-27T16:44:20;6.10;65.10
9668;DHT22;4872;48.316;10.650;2024-01-27T16:46:49;5.90;65.10
9668;DHT22;4872;48.316;10.650;2024-01-27T16:49:16;5.80;65.30
9668;DHT22;4872;48.316;10.650;2024-01-27T16:51:43;5.80;65.50
9668;DHT22;4872;48.316;10.650;2024-01-27T16:54:11;5.70;65.60
9668;DHT22;4872;48.316;10.650;2024-01-27T16:56:38;5.80;66.10
9668;DHT22;4872;48.316;10.650;2024-01-27T16:59:05;5.50;66.30
9668;DHT22;4872;48.316;10.650;2024-01-27T17:01:33;5.40;66.70
9668;DHT22;4872;48.316;10.650;2024-01-27T17:04:02;5.30;67.00
9668;DHT22;4872;48.316;10.650;2024-01-27T17:06:29;5.30;67.20
9668;DHT22;4872;48.316;10.650;2024-01-27T17:08:56;5.20;67.30
9668;DHT22;4872;48.316;10.650;2024-01-27T17:11:23;5.20;67.60
9668;DHT22;4872;48.316;10.650;2024-01-27T17:13:49;5.10;67.70
9668;DHT22;4872;48.316;10.650;2024-01-27T17:16:16;5.00;68.00
9668;DHT22;4872;48.316;10.650;2024-01-27T17:18:43;4.90;68.50
9668;DHT22;4872;48.316;10.650;2024-01-27T17:21:11;4.80;68.90
9668;DHT22;4872;48.316;10.650;2024-01-27T17:23:38;4.70;69.60
9668;DHT22;4872;48.316;10.650;2024-01-27T17:26:05;4.70;69.30
9668;DHT22;4872;48.316;10.650;2024-01-27T17:28:32;4.70;69.40
9668;DHT22;4872;48.316;10.650;2024-01-27T17:30:59;4.70;69.20
9668;DHT22;4872;48.316;10.650;2024-01-27T17:33:25;4.60;69.60
9668;DHT22;4872;48.316;10.650;2024-01-27T17:35:52;4.40;69.80
9668;DHT22;4872;48.316;10.650;2024-01-27T17:38:20;4.40;70.40
9668;DHT22;4872;48.316;10.650;2024-01-27T17:40:47;4.30;70.70
9668;DHT22;4872;48.316;10.650;2024-01-27T17:43:14;4.10;71.20
9668;DHT22;4872;48.316;10.650;2024-01-27T17:45:41;4.00;71.80
9668;DHT22;4872;48.316;10.650;2024-01-27T17:48:07;4.00;72.40
9668;DHT22;4872;48.316;10.650;2024-01-27T17:50:34;3.90;72.70
9668;DHT22;4872;48.316;10.650;2024-01-27T17:53:01;3.70;73.40
9668;DHT22;4872;48.316;10.650;2024-01-27T17:55:30;3.80;74.30
9668;DHT22;4872;48.316;10.650;2024-01-27T17:57:57;3.60;74.40
9668;DHT22;4872;48.316;10.650;2024-01-27T18:00:23;3.60;75.20
9668;DHT22;4872;48.316;10.650;2024-01-27T18:02:51;3.50;75.90
9668;DHT22;4872;48.316;10.650;2024-01-27T18:05:18;3.30;76.50
9668;DHT22;4872;48.316;10.650;2024-01-27T18:07:45;3.30;77.30
9668;DHT22;4872;48.316;10.650;2024-01-27T18:10:11;3.20;78.50
9668;DHT22;4872;48.316;10.650;2024-01-27T18:12:39;3.20;78.20
9668;DHT22;4872;48.316;10.650;2024-01-27T18:15:07;3.30;78.40
9668;DHT22;4872;48.316;10.650;2024-01-27T18:17:34;3.20;77.90
9668;DHT22;4872;48.316;10.650;2024-01-27T18:20:00;3.20;78.30
9668;DHT22;4872;48.316;10.650;2024-01-27T18:22:27;3.20;78.60
9668;DHT22;4872;48.316;10.650;2024-01-27T18:24:55;3.10;78.70
9668;DHT22;4872;48.316;10.650;2024-01-27T18:27:22;3.10;79.20
9668;DHT22;4872;48.316;10.650;2024-01-27T18:29:50;3.00;79.30
9668;DHT22;4872;48.316;10.650;2024-01-27T18:32:18;3.10;79.00
9668;DHT22;4872;48.316;10.650;2024-01-27T18:34:45;3.10;79.20
9668;DHT22;4872;48.316;10.650;2024-01-27T18:37:12;3.00;79.60
9668;DHT22;4872;48.316;10.650;2024-01-27T18:39:39;3.00;80.20
9668;DHT22;4872;48.316;10.650;2024-01-27T18:42:06;2.90;80.20
9668;DHT22;4872;48.316;10.650;2024-01-27T18:44:33;2.90;80.60
9668;DHT22;4872;48.316;10.650;2024-01-27T18:47:01;2.80;80.80
9668;DHT22;4872;48.316;10.650;2024-01-27T18:49:27;2.80;81.40
9668;DHT22;4872;48.316;10.650;2024-01-27T18:51:54;2.70;81.80
9668;DHT22;4872;48.316;10.650;2024-01-27T18:54:21;2.70;82.30
9668;DHT22;4872;48.316;10.650;2024-01-27T18:56:48;2.70;82.60
9668;DHT22;4872;48.316;10.650;2024-01-27T18:59:15;2.60;83.10
9668;DHT22;4872;48.316;10.650;2024-01-27T19:01:42;2.60;83.40
9668;DHT22;4872;48.316;10.650;2024-01-27T19:04:10;2.60;83.60
9668;DHT22;4872;48.316;10.650;2024-01-27T19:06:37;2.60;83.60
9668;DHT22;4872;48.316;10.650;2024-01-27T19:09:04;2.70;83.80
9668;DHT22;4872;48.316;10.650;2024-01-27T19:11:31;2.60;83.50
9668;DHT22;4872;48.316;10.650;2024-01-27T19:13:58;2.60;83.70
9668;DHT22;4872;48.316;10.650;2024-01-27T19:16:25;2.60;83.70
9668;DHT22;4872;48.316;10.650;2024-01-27T19:18:52;2.50;83.90
9668;DHT22;4872;48.316;10.650;2024-01-27T19:21:20;2.50;84.30
9668;DHT22;4872;48.316;10.650;2024-01-27T19:23:46;2.40;84.90
9668;DHT22;4872;48.316;10.650;2024-01-27T19:26:13;2.30;85.30
9668;DHT22;4872;48.316;10.650;2024-01-27T19:28:40;2.40;85.60
9668;DHT22;4872;48.316;10.650;2024-01-27T19:31:06;2.40;86.00
9668;DHT22;4872;48.316;10.650;2024-01-27T19:33:33;2.30;85.90
9668;DHT22;4872;48.316;10.650;2024-01-27T19:36:00;2.30;86.10
9668;DHT22;4872;48.316;10.650;2024-01-27T19:38:29;2.20;86.50
9668;DHT22;4872;48.316;10.650;2024-01-27T19:40:56;2.20;87.00
9668;DHT22;4872;48.316;10.650;2024-01-27T19:43:23;2.20;86.90
9668;DHT22;4872;48.316;10.650;2024-01-27T19:45:50;2.00;87.10
9668;DHT22;4872;48.316;10.650;2024-01-27T19:48:16;2.00;87.30
9668;DHT22;4872;48.316;10.650;2024-01-27T19:50:44;1.80;88.00
9668;DHT22;4872;48.316;10.650;2024-01-27T19:53:10;1.80;89.00
9668;DHT22;4872;48.316;10.650;2024-01-27T19:55:39;1.80;89.20
9668;DHT22;4872;48.316;10.650;2024-01-27T19:58:05;1.70;89.70
9668;DHT22;4872;48.316;10.650;2024-01-27T20:00:32;1.70;89.70
9668;DHT22;4872;48.316;10.650;2024-01-27T20:02:59;1.70;90.30
9668;DHT22;4872;48.316;10.650;2024-01-27T20:05:26;1.80;90.00
9668;DHT22;4872;48.316;10.650;2024-01-27T20:07:53;1.70;90.20
9668;DHT22;4872;48.316;10.650;2024-01-27T20:10:20;1.70;90.40
9668;DHT22;4872;48.316;10.650;2024-01-27T20:12:48;1.70;90.60
9668;DHT22;4872;48.316;10.650;2024-01-27T20:15:16;1.90;90.50
9668;DHT22;4872;48.316;10.650;2024-01-27T20:17:43;1.80;90.50
9668;DHT22;4872;48.316;10.650;2024-01-27T20:20:10;1.80;90.40
9668;DHT22;4872;48.316;10.650;2024-01-27T20:22:37;1.80;90.40
9668;DHT22;4872;48.316;10.650;2024-01-27T20:25:05;1.90;90.30
9668;DHT22;4872;48.316;10.650;2024-01-27T20:27:31;1.90;90.30
9668;DHT22;4872;48.316;10.650;2024-01-27T20:30:00;1.70;90.40
9668;DHT22;4872;48.316;10.650;2024-01-27T20:32:27;1.70;90.30
9668;DHT22;4872;48.316;10.650;2024-01-27T20:34:54;1.60;90.60
9668;DHT22;4872;48.316;10.650;2024-01-27T20:37:20;1.60;90.70
9668;DHT22;4872;48.316;10.650;2024-01-27T20:39:47;1.60;90.60
9668;DHT22;4872;48.316;10.650;2024-01-27T20:42:15;1.60;90.70
9668;DHT22;4872;48.316;10.650;2024-01-27T20:44:42;1.60;90.90
9668;DHT22;4872;48.316;10.650;2024-01-27T20:47:10;1.60;90.80
9668;DHT22;4872;48.316;10.650;2024-01-27T20:49:37;1.60;90.70
9668;DHT22;4872;48.316;10.650;2024-01-27T20:52:04;1.60;90.60
9668;DHT22;4872;48.316;10.650;2024-01-27T20:54:32;1.50;90.60
9668;DHT22;4872;48.316;10.650;2024-01-27T20:56:59;1.50;90.80
9668;DHT22;4872;48.316;10.650;2024-01-27T20:59:26;1.50;90.90